Time;durP1;ratioP1;P1;durP2;ratioP2;P2;SDS_P1;SDS_P2;PMS_P1;PMS_P2;Temp;Humidity;BMP_temperature;BMP_pressure;BME280_temperature;BME280_humidity;BME280_pressure;Samples;Min_cycle;Max_cycle;Signal;HPM_P1;HPM_P2
2023/05/09 00:01:38;;;;;;;0.10;0.10;;;;;;;-145.06;49.03;93694.34;10359387;28;20029;-74
2023/05/09 00:06:39;;;;;;;0.10;0.10;;;;;;;-145.06;49.89;93682.06;10369928;28;20034;-74
2023/05/09 00:11:39;;;;;;;0.10;0.10;;;;;;;-145.06;50.41;93718.88;10369595;28;20018;-73
2023/05/09 00:16:39;;;;;;;0.10;0.10;;;;;;;-145.06;50.79;93749.56;10369629;28;20021;-74
2023/05/09 00:21:40;;;;;;;0.10;0.10;;;;;;;-145.06;50.49;93739.34;10353126;28;20017;-74
2023/05/09 00:26:40;;;;;;;0.10;0.10;;;;;;;-145.06;51.81;93808.88;10369072;28;20022;-73
2023/05/09 00:31:40;;;;;;;0.10;0.10;;;;;;;-145.06;51.16;93739.34;10361981;28;20152;-74
2023/05/09 00:36:41;;;;;;;0.00;0.00;;;;;;;-145.06;51.51;93747.53;10367473;28;20018;-74
2023/05/09 00:41:41;;;;;;;0.10;0.10;;;;;;;-145.06;51.22;93710.69;10368775;28;20041;-74
2023/05/09 00:46:42;;;;;;;0.10;0.10;;;;;;;-145.06;51.55;93755.69;10368589;28;20041;-74
2023/05/09 00:51:42;;;;;;;0.10;0.10;;;;;;;-145.06;52.02;93747.53;10368500;28;20392;-74
2023/05/09 00:56:43;;;;;;;0.10;0.10;;;;;;;-145.06;51.90;93720.94;10368328;28;20244;-74
2023/05/09 01:01:44;;;;;;;0.00;0.00;;;;;;;-145.06;52.41;93739.34;10355754;28;20030;-74
2023/05/09 01:07:25;;;;;;;0.10;0.10;;;;;;;-145.06;52.45;93753.66;10366821;28;20026;-74
2023/05/09 01:12:38;;;;;;;0.10;0.10;;;;;;;-145.06;53.83;93782.28;10332379;28;20037;-73
2023/05/09 01:17:58;;;;;;;0.00;0.00;;;;;;;-145.06;53.78;93763.88;10366920;28;20014;-74
2023/05/09 01:23:24;;;;;;;0.08;0.08;;;;;;;-145.06;53.95;93751.63;10373985;28;20030;-73
2023/05/09 01:29:00;;;;;;;0.00;0.00;;;;;;;-145.06;54.35;93790.47;10375377;28;20025;-73
2023/05/09 01:34:01;;;;;;;0.10;0.10;;;;;;;-145.06;55.09;93815.03;10367175;23;20034;-77
2023/05/09 01:39:04;;;;;;;0.10;0.10;;;;;;;-145.06;54.88;93804.78;10337577;28;20022;-76
2023/05/09 01:44:08;;;;;;;0.00;0.00;;;;;;;-145.06;55.33;93833.44;10313254;28;20092;-76
2023/05/09 01:49:10;;;;;;;0.10;0.10;;;;;;;-145.06;56.03;93827.28;10328302;28;20064;-76
2023/05/09 01:54:11;;;;;;;0.00;0.00;;;;;;;-145.06;56.94;93841.63;10345832;28;20026;-76
2023/05/09 01:59:15;;;;;;;0.10;0.10;;;;;;;-145.06;58.09;93853.88;10338127;28;20377;-76
2023/05/09 02:04:16;;;;;;;0.10;0.10;;;;;;;-145.06;58.82;93845.69;10332035;28;20026;-76
2023/05/09 02:09:18;;;;;;;0.10;0.10;;;;;;;-145.06;59.34;93876.38;10331122;28;20026;-77
2023/05/09 02:14:19;;;;;;;0.10;0.10;;;;;;;-145.06;59.16;93864.13;10339756;28;20049;-76
2023/05/09 02:19:19;;;;;;;0.10;0.10;;;;;;;-145.06;59.33;93849.78;10336631;28;20214;-77
2023/05/09 02:24:19;;;;;;;0.10;0.10;;;;;;;-145.06;60.19;93874.34;10347589;28;20544;-76
2023/05/09 02:29:25;;;;;;;0.10;0.10;;;;;;;-145.06;60.16;93892.75;10312088;28;20061;-76
2023/05/09 02:34:25;;;;;;;0.10;0.10;;;;;;;-145.06;60.47;93931.63;10340456;28;20489;-76
2023/05/09 02:39:26;;;;;;;0.10;0.10;;;;;;;-145.06;61.40;93884.56;10334895;28;20026;-76
2023/05/09 02:44:26;;;;;;;0.10;0.10;;;;;;;-145.06;61.83;93915.25;10331363;28;20683;-76
2023/05/09 02:49:27;;;;;;;0.10;0.10;;;;;;;-145.06;61.76;93898.88;10319627;28;20060;-76
2023/05/09 02:54:27;;;;;;;0.10;0.10;;;;;;;-145.06;61.61;93890.72;10316155;28;20031;-76
2023/05/09 02:59:28;;;;;;;0.00;0.00;;;;;;;-145.06;62.02;93890.72;10343953;28;20022;-76
2023/05/09 03:04:28;;;;;;;0.00;0.00;;;;;;;-145.06;62.27;93886.63;10338479;28;20045;-76
2023/05/09 03:09:28;;;;;;;0.10;0.10;;;;;;;-145.06;62.88;93898.88;10332911;28;20102;-76
2023/05/09 03:14:30;;;;;;;0.00;0.00;;;;;;;-145.06;63.14;93935.69;10339004;28;20021;-76
2023/05/09 03:19:31;;;;;;;0.10;0.10;;;;;;;-145.06;63.76;93874.34;10323120;28;20041;-76
2023/05/09 03:24:31;;;;;;;0.10;0.10;;;;;;;-145.06;63.30;93860.03;10307261;28;20038;-76
2023/05/09 03:29:32;;;;;;;0.03;0.03;;;;;;;-145.06;64.83;93857.97;10334834;28;20485;-76
2023/05/09 03:34:32;;;;;;;0.10;0.10;;;;;;;-145.06;64.27;93817.06;10313327;28;20028;-76
2023/05/09 03:39:32;;;;;;;0.00;0.00;;;;;;;-145.06;64.16;92966.25;10324903;28;20472;-76
2023/05/09 03:44:33;;;;;;;0.10;0.10;;;;;;;-145.06;63.38;92884.44;10318964;28;20084;-76
2023/05/09 03:49:33;;;;;;;0.10;0.10;;;;;;;-145.06;62.52;92757.66;10304881;28;20022;-76
2023/05/09 03:54:33;;;;;;;0.10;0.10;;;;;;;-145.06;60.57;92755.59;10324394;28;20037;-77
2023/05/09 03:59:34;;;;;;;0.03;0.03;;;;;;;-145.06;60.79;92825.13;10290438;28;20553;-76
2023/05/09 04:04:34;;;;;;;0.10;0.10;;;;;;;-145.06;60.56;92996.91;10310584;28;20133;-77
2023/05/09 04:09:34;;;;;;;0.00;0.00;;;;;;;-145.06;62.06;92913.06;10335293;28;20019;-77
2023/05/09 04:14:35;;;;;;;0.10;0.10;;;;;;;-145.06;61.93;92735.16;10313305;28;20025;-77
2023/05/09 04:19:35;;;;;;;0.10;0.10;;;;;;;-145.06;59.75;92442.75;10310970;28;20250;-78
2023/05/09 04:24:35;;;;;;;0.10;0.10;;;;;;;-145.06;56.74;92540.91;10313545;28;20026;-77
2023/05/09 04:29:37;;;;;;;0.10;0.10;;;;;;;-145.06;54.35;92156.50;10327397;28;20481;-78
2023/05/09 04:34:37;;;;;;;0.10;0.10;;;;;;;-145.06;50.41;92054.25;10328142;28;20038;-77
2023/05/09 04:39:38;;;;;;;0.10;0.10;;;;;;;-145.06;48.07;91925.44;10322233;28;20029;-77
2023/05/09 04:44:38;;;;;;;0.10;0.10;;;;;;;-145.06;46.00;91845.72;10329969;28;20030;-77
2023/05/09 04:49:39;;;;;;;0.10;0.10;;;;;;;-145.06;45.00;91770.06;10313408;28;20022;-78
2023/05/09 04:54:39;;;;;;;0.10;0.10;;;;;;;-145.06;44.83;91770.06;10325208;28;20396;-75
2023/05/09 04:59:40;;;;;;;0.10;0.10;;;;;;;-145.06;43.28;91665.81;10314343;28;20026;-78
2023/05/09 05:04:40;;;;;;;0.10;0.10;;;;;;;-145.06;42.86;91639.22;10325847;28;20034;-78
2023/05/09 05:09:41;;;;;;;0.05;0.05;;;;;;;-145.06;42.73;91620.84;10333492;28;20026;-78
2023/05/09 05:14:41;;;;;;;0.00;0.00;;;;;;;-145.06;42.62;91555.41;10326367;28;20160;-76
2023/05/09 05:19:41;;;;;;;0.00;0.00;;;;;;;-145.06;41.76;91682.16;10347317;28;20116;-76
2023/05/09 05:24:41;;;;;;;0.10;0.10;;;;;;;-145.06;43.17;92015.41;10331742;28;20517;-76
2023/05/09 05:29:42;;;;;;;0.00;0.00;;;;;;;-145.06;46.09;92414.13;10338232;28;20377;-78
2023/05/09 05:34:42;;;;;;;0.10;0.10;;;;;;;-145.06;46.71;91950.00;10338067;28;20032;-76
2023/05/09 05:39:42;;;;;;;0.00;0.00;;;;;;;-145.06;44.83;91669.91;10316760;28;20034;-76
2023/05/09 05:44:43;;;;;;;0.00;0.00;;;;;;;-145.06;42.63;91586.06;10343042;28;20034;-78
2023/05/09 05:49:43;;;;;;;0.00;0.00;;;;;;;-145.06;41.56;91490.00;10339324;28;20389;-76
2023/05/09 05:54:43;;;;;;;0.00;0.00;;;;;;;-145.06;39.99;91365.28;10337269;28;20061;-76
2023/05/09 05:59:46;;;;;;;0.00;0.00;;;;;;;-145.06;39.95;91365.28;10330033;28;20421;-76
2023/05/09 06:04:47;;;;;;;;;;;;;;;-145.06;39.75;91328.50;10350703;28;20021;-76
2023/05/09 06:09:47;;;;;;;0.00;0.00;;;;;;;-145.06;38.97;91303.97;10315685;28;19917;-76
2023/05/09 06:14:47;;;;;;;0.00;0.00;;;;;;;-145.06;38.66;91234.47;10339356;28;20025;-76
2023/05/09 06:19:47;;;;;;;0.10;0.10;;;;;;;-145.06;38.58;91293.75;10330932;28;20545;-77
2023/05/09 06:24:48;;;;;;;0.00;0.00;;;;;;;-145.06;38.41;91265.13;10329521;28;20576;-77
2023/05/09 06:29:48;;;;;;;0.10;0.10;;;;;;;-145.06;38.80;91254.91;10317125;28;20474;-77
2023/05/09 06:34:48;;;;;;;0.10;0.10;;;;;;;-145.06;38.44;91289.66;10332925;28;20389;-76
2023/05/09 06:39:49;;;;;;;0.00;0.00;;;;;;;-145.06;39.35;91269.22;10328353;28;20458;-76
2023/05/09 06:44:50;;;;;;;0.00;0.00;;;;;;;-145.06;38.73;91252.88;10309834;28;20053;-76
2023/05/09 06:49:50;;;;;;;0.10;0.10;;;;;;;-145.06;39.32;91295.78;10334456;28;20100;-76
2023/05/09 06:54:50;;;;;;;0.00;0.00;;;;;;;-145.06;39.23;91297.84;10328347;28;20477;-76
2023/05/09 06:59:51;;;;;;;0.08;0.08;;;;;;;-145.06;40.13;91265.13;10331485;28;20030;-75
2023/05/09 07:04:51;;;;;;;0.00;0.00;;;;;;;-145.06;39.29;91295.78;10351583;28;20065;-76
2023/05/09 07:09:51;;;;;;;0.10;0.10;;;;;;;-145.06;39.63;91279.44;10344873;28;20424;-75
2023/05/09 07:14:52;;;;;;;0.00;0.00;;;;;;;-145.06;39.81;91502.25;10340513;28;20014;-76
2023/05/09 07:19:52;;;;;;;0.10;0.10;;;;;;;-145.06;41.11;91457.28;10345464;28;20025;-75
2023/05/09 07:24:52;;;;;;;0.00;0.00;;;;;;;-145.06;42.26;91686.25;10327120;28;20030;-74
2023/05/09 07:29:53;;;;;;;0.10;0.10;;;;;;;-145.06;42.81;91626.97;10324154;28;20030;-74
2023/05/09 07:34:53;;;;;;;0.00;0.00;;;;;;;-145.06;43.02;91674.00;10372385;22;20038;-77
2023/05/09 07:39:54;;;;;;;0.10;0.10;;;;;;;-145.06;42.42;91522.69;10362323;28;20025;-77
2023/05/09 07:44:55;;;;;;;0.00;0.00;;;;;;;-145.06;41.83;91318.28;10359271;28;20037;-77
2023/05/09 07:49:55;;;;;;;0.00;0.00;;;;;;;-145.06;41.53;91373.47;10361361;28;20029;-77
2023/05/09 07:54:56;;;;;;;0.00;0.00;;;;;;;-145.06;42.68;91943.84;10358428;28;20022;-77
2023/05/09 07:59:56;;;;;;;0.00;0.00;;;;;;;-145.06;45.17;92154.44;10358550;28;20491;-77
2023/05/09 08:04:57;;;;;;;0.10;0.10;;;;;;;-145.06;46.06;92031.78;10361738;28;20022;-77
2023/05/09 08:09:57;;;;;;;0.00;0.00;;;;;;;-145.06;46.29;92037.91;10362683;28;20017;-77
2023/05/09 08:14:57;;;;;;;0.00;0.00;;;;;;;-145.06;48.48;92064.47;10342968;28;20028;-77
2023/05/09 08:19:57;;;;;;;0.10;0.10;;;;;;;-145.06;47.42;91600.38;10358479;28;20071;-76
2023/05/09 08:24:58;;;;;;;0.10;0.10;;;;;;;-145.06;45.22;91498.16;10357596;28;20025;-77
2023/05/09 08:29:58;;;;;;;0.00;0.00;;;;;;;-145.06;45.14;91442.97;10361307;28;20079;-77
2023/05/09 08:34:58;;;;;;;0.00;0.00;;;;;;;-145.06;44.06;91395.97;10359121;28;20029;-76
2023/05/09 08:39:59;;;;;;;0.00;0.00;;;;;;;-145.06;43.19;91348.94;10363219;28;20327;-76
2023/05/09 08:45:00;;;;;;;0.10;0.10;;;;;;;-145.06;42.83;91389.81;10363123;28;20028;-76
2023/05/09 08:50:02;;;;;;;0.00;0.00;;;;;;;-145.06;43.73;91436.84;10361052;28;20478;-77
2023/05/09 08:55:06;;;;;;;0.00;0.00;;;;;;;-145.06;44.75;91422.53;10359873;28;20029;-77
2023/05/09 09:00:10;;;;;;;0.10;0.10;;;;;;;-145.06;43.90;91416.41;10363272;28;20053;-77
2023/05/09 09:05:10;;;;;;;0.00;0.00;;;;;;;-145.06;44.04;91432.75;10357012;28;20105;-77
2023/05/09 09:10:11;;;;;;;0.00;0.00;;;;;;;-145.06;43.49;91479.78;10363700;28;20029;-76
2023/05/09 09:15:16;;;;;;;0.00;0.00;;;;;;;-145.06;44.19;91463.41;10360980;28;20400;-76
2023/05/09 09:20:20;;;;;;;0.10;0.10;;;;;;;-145.06;43.84;91432.75;10361196;28;20077;-77
2023/05/09 09:25:20;;;;;;;0.10;0.10;;;;;;;-145.06;44.43;91440.94;10358430;28;20499;-76
2023/05/09 09:30:24;;;;;;;0.10;0.10;;;;;;;-145.06;43.37;91398.00;10358920;28;20029;-76
2023/05/09 09:35:25;;;;;;;0.00;0.00;;;;;;;-145.06;44.61;91379.59;10350145;28;20058;-77
2023/05/09 09:40:25;;;;;;;0.00;0.00;;;;;;;-145.06;42.63;91342.81;10347819;28;20481;-77
2023/05/09 09:45:26;;;;;;;0.00;0.00;;;;;;;-145.06;42.10;91332.59;10355275;28;20033;-76
2023/05/09 09:50:26;;;;;;;0.00;0.00;;;;;;;-145.06;43.23;91402.09;10357903;28;20030;-77
2023/05/09 09:55:28;;;;;;;0.10;0.10;;;;;;;-145.06;42.50;91371.44;10349084;28;20018;-77
2023/05/09 10:00:29;;;;;;;0.00;0.00;;;;;;;-145.06;42.05;91318.28;10354156;28;20472;-77
2023/05/09 10:05:30;;;;;;;0.00;0.00;;;;;;;-145.06;41.22;91363.25;10359017;28;20038;-77
2023/05/09 10:10:32;;;;;;;0.00;0.00;;;;;;;-145.06;41.59;91391.88;10357357;28;20022;-77
2023/05/09 10:15:34;;;;;;;0.00;0.00;;;;;;;-145.06;41.08;91494.09;10355787;28;20029;-77
2023/05/09 10:20:38;;;;;;;0.00;0.00;;;;;;;-145.06;39.79;91504.31;10358678;28;20029;-77
2023/05/09 10:25:45;;;;;;;0.03;0.03;;;;;;;-145.06;39.93;91637.19;10355748;28;20022;-76
2023/05/09 10:31:00;;;;;;;0.10;0.10;;;;;;;-145.06;39.78;91706.69;10354311;28;20125;-76
2023/05/09 10:36:02;;;;;;;0.10;0.10;;;;;;;-145.06;39.19;91704.66;10355289;28;20053;-76
2023/05/09 10:41:04;;;;;;;0.00;0.00;;;;;;;-145.06;39.23;91586.06;10358461;28;20113;-77
2023/05/09 10:46:05;;;;;;;0.00;0.00;;;;;;;-145.06;40.02;91543.16;10357306;28;20022;-77
2023/05/09 10:51:06;;;;;;;0.00;0.00;;;;;;;-145.06;39.60;91530.88;10356534;28;20115;-77
2023/05/09 10:56:07;;;;;;;0.10;0.10;;;;;;;-145.06;38.51;91408.22;10356867;28;20033;-76
2023/05/09 11:01:07;;;;;;;0.00;0.00;;;;;;;-145.06;36.52;91424.56;10356963;28;20034;-76
2023/05/09 11:06:07;;;;;;;0.10;0.10;;;;;;;-145.06;35.66;91373.47;10358700;28;21353;-76
2023/05/09 11:11:23;;;;;;;0.00;0.00;;;;;;;-145.06;36.92;91432.75;10350982;28;20350;-76
2023/05/09 11:16:25;;;;;;;0.10;0.10;;;;;;;-145.06;34.69;91346.91;10358061;28;20014;-76
2023/05/09 11:21:26;;;;;;;0.00;0.00;;;;;;;-145.06;34.70;91340.75;10355367;28;20472;-77
2023/05/09 11:26:29;;;;;;;0.00;0.00;;;;;;;-145.06;36.34;91414.34;10357583;28;20025;-76
2023/05/09 11:31:29;;;;;;;0.00;0.00;;;;;;;-145.06;34.31;91424.56;10354176;28;20022;-77
2023/05/09 11:36:32;;;;;;;0.00;0.00;;;;;;;-145.06;35.64;91400.06;10358338;28;20137;-76
2023/05/09 11:41:45;;;;;;;0.00;0.00;;;;;;;-145.06;34.94;91350.97;10356309;28;20141;-77
2023/05/09 11:46:47;;;;;;;0.00;0.00;;;;;;;-145.06;33.80;91346.91;10358462;28;20108;-76
2023/05/09 11:51:47;;;;;;;0.00;0.00;;;;;;;-145.06;35.42;91406.19;10353359;28;20129;-76
2023/05/09 11:56:47;;;;;;;0.00;0.00;;;;;;;-145.06;36.47;91410.28;10355043;28;20052;-76
2023/05/09 12:01:48;;;;;;;0.00;0.00;;;;;;;-145.06;35.92;91387.78;10353668;28;20421;-77
2023/05/09 12:06:48;;;;;;;0.00;0.00;;;;;;;-145.06;35.93;91383.69;10357689;28;20030;-77
2023/05/09 12:11:48;;;;;;;0.00;0.00;;;;;;;-145.06;35.67;91359.16;10356385;28;20022;-77
2023/05/09 12:16:49;;;;;;;0.10;0.10;;;;;;;-145.06;35.03;91350.97;10356599;28;20253;-76
2023/05/09 12:21:57;;;;;;;0.10;0.10;;;;;;;-145.06;35.38;91289.66;10356092;28;20022;-77
2023/05/09 12:26:58;;;;;;;0.10;0.10;;;;;;;-145.06;35.43;91350.97;10354564;28;20022;-76
2023/05/09 12:31:59;;;;;;;0.00;0.00;;;;;;;-145.06;34.37;91297.84;10355577;28;20040;-76
2023/05/09 12:37:02;;;;;;;0.00;0.00;;;;;;;-145.06;35.11;91297.84;10355220;28;20025;-76
2023/05/09 12:42:10;;;;;;;0.00;0.00;;;;;;;-145.06;34.41;91322.38;10357621;28;20022;-77
2023/05/09 12:47:11;;;;;;;0.00;0.00;;;;;;;-145.06;34.35;91275.34;10356857;28;20037;-76
2023/05/09 12:52:18;;;;;;;0.00;0.00;;;;;;;-145.06;35.07;91365.28;10356250;28;20018;-76
2023/05/09 12:57:23;;;;;;;0.00;0.00;;;;;;;-145.06;33.47;91320.31;10351271;28;20076;-76
2023/05/09 13:02:32;;;;;;;0.00;0.00;;;;;;;-145.06;33.90;91326.47;10356747;28;20112;-76
2023/05/09 13:07:50;;;;;;;0.00;0.00;;;;;;;-145.06;36.05;91369.38;10356162;28;20014;-76
2023/05/09 13:12:52;;;;;;;0.00;0.00;;;;;;;-145.06;35.49;91310.09;10357131;28;20022;-76
2023/05/09 13:17:52;;;;;;;0.00;0.00;;;;;;;-145.06;34.12;91279.44;10359598;28;20014;-76
2023/05/09 13:22:53;;;;;;;0.00;0.00;;;;;;;-145.06;34.70;91275.34;10363623;28;20256;-76
2023/05/09 13:27:53;;;;;;;0.00;0.00;;;;;;;-145.06;34.65;91273.31;10365790;28;20025;-76
2023/05/09 13:32:53;;;;;;;0.00;0.00;;;;;;;-145.06;34.58;91275.34;10364286;28;20481;-76
2023/05/09 13:37:54;;;;;;;0.00;0.00;;;;;;;-145.06;35.89;91275.34;10367230;28;20424;-76
2023/05/09 13:42:54;;;;;;;0.10;0.10;;;;;;;-145.06;34.49;91261.03;10367003;28;20473;-76
2023/05/09 13:47:55;;;;;;;0.00;0.00;;;;;;;-145.06;35.90;91273.31;10364845;28;20026;-76
2023/05/09 13:52:55;;;;;;;0.00;0.00;;;;;;;-145.06;35.14;91283.53;10362475;28;20265;-76
2023/05/09 13:57:55;;;;;;;0.00;0.00;;;;;;;-145.06;34.34;91254.91;10361779;28;20132;-76
2023/05/09 14:02:56;;;;;;;0.00;0.00;;;;;;;-145.06;34.07;91248.78;10365135;28;20029;-76
2023/05/09 14:07:56;;;;;;;0.10;0.10;;;;;;;-145.06;33.82;91203.81;10366721;28;20072;-76
2023/05/09 14:12:56;;;;;;;0.10;0.10;;;;;;;-145.06;32.42;91195.63;10364833;28;20026;-76
2023/05/09 14:17:57;;;;;;;0.00;0.00;;;;;;;-145.06;32.27;91275.34;10358894;28;20026;-76
2023/05/09 14:22:59;;;;;;;0.00;0.00;;;;;;;-145.06;34.57;91293.75;10363604;28;20401;-76
2023/05/09 14:27:59;;;;;;;0.10;0.10;;;;;;;-145.06;32.38;91148.63;10364493;28;20029;-76
2023/05/09 14:33:00;;;;;;;0.00;0.00;;;;;;;-145.06;33.84;91238.56;10358849;28;20481;-76
2023/05/09 14:38:00;;;;;;;0.00;0.00;;;;;;;-145.06;33.26;91224.25;10360999;28;20416;-75
2023/05/09 14:43:01;;;;;;;0.00;0.00;;;;;;;-145.06;33.99;91248.78;10363641;28;20692;-76
2023/05/09 14:48:05;;;;;;;0.00;0.00;;;;;;;-145.06;33.35;91287.63;10364142;28;20030;-76
2023/05/09 14:53:06;;;;;;;0.00;0.00;;;;;;;-145.06;33.09;91269.22;10365282;28;20268;-76
2023/05/09 14:58:07;;;;;;;0.10;0.10;;;;;;;-145.06;34.35;91320.31;10365216;28;20041;-76
2023/05/09 15:03:08;;;;;;;0.10;0.10;;;;;;;-145.06;33.80;91252.88;10362128;28;20045;-76
2023/05/09 15:08:09;;;;;;;0.00;0.00;;;;;;;-145.06;33.43;91230.38;10366688;28;20108;-76
2023/05/09 15:13:10;;;;;;;0.10;0.10;;;;;;;-145.06;33.78;91379.59;10365146;28;20021;-76
2023/05/09 15:18:12;;;;;;;0.00;0.00;;;;;;;-145.06;34.36;91375.50;10363491;28;20025;-76
2023/05/09 15:23:12;;;;;;;0.00;0.00;;;;;;;-145.06;33.08;91285.56;10362970;28;20026;-76
2023/05/09 15:28:12;;;;;;;0.00;0.00;;;;;;;-145.06;34.57;91379.59;10364977;28;20377;-76
2023/05/09 15:33:12;;;;;;;0.00;0.00;;;;;;;-145.06;33.87;91353.03;10366631;28;20083;-76
2023/05/09 15:38:14;;;;;;;0.00;0.00;;;;;;;-145.06;33.79;91400.06;10364020;28;20080;-76
2023/05/09 15:43:14;;;;;;;0.00;0.00;;;;;;;-145.06;34.97;91481.81;10365514;28;20025;-76
2023/05/09 15:48:15;;;;;;;0.00;0.00;;;;;;;-145.06;34.17;91465.47;10363658;28;20018;-75
2023/05/09 15:53:15;;;;;;;0.00;0.00;;;;;;;-145.06;33.72;91473.63;10353113;28;20084;-75
2023/05/09 15:58:16;;;;;;;0.00;0.00;;;;;;;-145.06;34.46;91559.50;10350125;28;20088;-76
2023/05/09 16:03:17;;;;;;;0.10;0.10;;;;;;;-145.06;34.69;91669.91;10350216;28;20389;-76
2023/05/09 16:08:17;;;;;;;0.05;0.05;;;;;;;-145.06;34.65;91575.84;10350816;28;20061;-76
2023/05/09 16:13:17;;;;;;;0.00;0.00;;;;;;;-145.06;35.07;91522.69;10351562;28;20358;-76
2023/05/09 16:18:17;;;;;;;0.00;0.00;;;;;;;-145.06;35.08;91813.00;10353620;28;20018;-76
2023/05/09 16:23:19;;;;;;;0.00;0.00;;;;;;;-145.06;35.44;92029.72;10353221;28;20026;-76
2023/05/09 16:28:22;;;;;;;0.00;0.00;;;;;;;-145.06;36.00;92005.19;10353294;28;20041;-75
2023/05/09 16:33:22;;;;;;;0.00;0.00;;;;;;;-145.06;36.58;92109.47;10350922;28;20041;-75
2023/05/09 16:38:22;;;;;;;0.00;0.00;;;;;;;-145.06;36.50;92168.75;10354397;28;20076;-76
2023/05/09 16:43:23;;;;;;;0.00;0.00;;;;;;;-145.06;36.90;92176.94;10349464;28;20535;-76
2023/05/09 16:48:23;;;;;;;0.10;0.10;;;;;;;-145.06;36.45;92183.06;10351592;28;20110;-76
2023/05/09 16:53:23;;;;;;;0.00;0.00;;;;;;;-145.06;35.96;92129.91;10357679;28;20084;-75
2023/05/09 16:58:24;;;;;;;0.00;0.00;;;;;;;-145.06;36.63;92166.72;10360657;28;20018;-76
2023/05/09 17:03:24;;;;;;;0.10;0.10;;;;;;;-145.06;36.16;92160.56;10357934;28;20427;-76
2023/05/09 17:08:24;;;;;;;0.00;0.00;;;;;;;-145.06;35.58;92162.63;10314072;28;20441;-76
2023/05/09 17:13:25;;;;;;;0.00;0.00;;;;;;;-145.06;35.56;92113.56;10311771;28;20041;-75
2023/05/09 17:18:25;;;;;;;0.10;0.10;;;;;;;-145.06;36.22;92158.53;10322141;28;20015;-75
2023/05/09 17:23:25;;;;;;;0.10;0.10;;;;;;;-145.06;35.35;92140.13;10316108;28;20018;-76
2023/05/09 17:28:26;;;;;;;0.00;0.00;;;;;;;-145.06;35.52;92131.94;10318192;28;20042;-75
2023/05/09 17:33:27;;;;;;;0.10;0.10;;;;;;;-145.06;36.06;92193.28;10319993;28;20393;-75
2023/05/09 17:38:27;;;;;;;0.10;0.10;;;;;;;-145.06;36.44;92246.44;10318958;28;20014;-75
2023/05/09 17:43:27;;;;;;;0.00;0.00;;;;;;;-145.06;36.02;92219.88;10319795;28;20482;-76
2023/05/09 17:48:28;;;;;;;0.00;0.00;;;;;;;-145.06;36.13;92240.31;10319537;28;20493;-75
2023/05/09 17:53:28;;;;;;;0.00;0.00;;;;;;;-145.06;36.23;92248.50;10321424;28;20030;-75
2023/05/09 17:58:28;;;;;;;0.00;0.00;;;;;;;-145.06;35.87;92238.28;10318234;28;20065;-75
2023/05/09 18:03:30;;;;;;;0.00;0.00;;;;;;;-145.06;36.33;92287.34;10317520;28;20099;-75
2023/05/09 18:08:31;;;;;;;0.00;0.00;;;;;;;-145.06;36.56;92275.06;10320742;28;20026;-75
2023/05/09 18:13:33;;;;;;;0.00;0.00;;;;;;;-145.06;36.01;92377.31;10316582;28;20022;-75
2023/05/09 18:18:35;;;;;;;0.00;0.00;;;;;;;-145.06;36.89;92328.25;10317159;28;20373;-76
2023/05/09 18:23:36;;;;;;;0.10;0.10;;;;;;;-145.06;36.57;92348.69;10317160;28;20065;-75
2023/05/09 18:28:38;;;;;;;0.03;0.03;;;;;;;-145.06;36.78;92369.13;10316744;28;20501;-75
2023/05/09 18:33:39;;;;;;;0.03;0.03;;;;;;;-145.06;36.49;92360.97;10305681;28;20465;-75
2023/05/09 18:38:40;;;;;;;0.00;0.00;;;;;;;-145.06;36.58;92367.09;10320068;28;20455;-75
2023/05/09 18:43:44;;;;;;;0.00;0.00;;;;;;;-145.06;37.07;92373.22;10318352;28;20050;-75
2023/05/09 18:48:47;;;;;;;0.00;0.00;;;;;;;-145.06;36.96;92428.44;10317881;28;20026;-75
2023/05/09 18:53:47;;;;;;;0.10;0.10;;;;;;;-145.06;37.16;92418.22;10315836;28;20333;-75
2023/05/09 18:58:51;;;;;;;0.10;0.10;;;;;;;-145.06;36.60;92418.22;10316402;28;20481;-75
2023/05/09 19:03:53;;;;;;;;;;;;;;;-145.06;36.49;92412.06;10316585;28;20029;-75
2023/05/09 19:08:53;;;;;;;0.03;0.03;;;;;;;-145.06;36.28;92428.44;10314944;28;19913;-75
2023/05/09 19:13:53;;;;;;;0.10;0.10;;;;;;;-145.06;34.85;92332.31;10310852;28;20057;-75
2023/05/09 19:18:55;;;;;;;0.00;0.00;;;;;;;-145.06;35.40;92363.00;10314194;28;20041;-75
2023/05/09 19:23:55;;;;;;;0.00;0.00;;;;;;;-145.06;35.52;92442.75;10320812;28;20030;-75
2023/05/09 19:28:56;;;;;;;0.00;0.00;;;;;;;-145.06;35.74;92403.91;10312610;28;20026;-75
2023/05/09 19:33:56;;;;;;;0.10;0.10;;;;;;;-145.06;36.14;92389.59;10317475;28;20026;-75
2023/05/09 19:38:56;;;;;;;0.10;0.10;;;;;;;-145.06;36.23;92455.00;10319541;28;20084;-75
2023/05/09 19:43:57;;;;;;;0.10;0.10;;;;;;;-145.06;36.47;92452.97;10312511;28;20393;-75
2023/05/09 19:48:57;;;;;;;0.10;0.10;;;;;;;-145.06;36.93;92473.41;10317018;28;20041;-75
2023/05/09 19:53:58;;;;;;;0.10;0.10;;;;;;;-145.06;37.44;92502.03;10313257;28;20056;-76
2023/05/09 19:58:58;;;;;;;0.10;0.10;;;;;;;-145.06;37.29;92485.69;10316835;28;20786;-75
2023/05/09 20:03:58;;;;;;;0.10;0.10;;;;;;;-145.06;37.82;92495.91;10323163;28;20374;-75
2023/05/09 20:08:58;;;;;;;0.10;0.10;;;;;;;-145.06;37.70;92510.22;10359816;28;20034;-75
2023/05/09 20:13:59;;;;;;;0.10;0.10;;;;;;;-145.06;37.83;92491.81;10358892;28;20042;-75
2023/05/09 20:18:59;;;;;;;0.00;0.00;;;;;;;-145.06;38.24;92504.09;10361921;28;20021;-75
2023/05/09 20:24:00;;;;;;;0.10;0.10;;;;;;;-145.06;38.40;92524.53;10362517;28;20104;-76
2023/05/09 20:29:00;;;;;;;0.10;0.10;;;;;;;-145.06;37.87;92524.53;10360553;28;20045;-75
2023/05/09 20:34:00;;;;;;;0.00;0.00;;;;;;;-145.06;38.37;92549.06;10358769;28;20048;-76
2023/05/09 20:39:01;;;;;;;0.10;0.10;;;;;;;-145.06;38.15;92528.63;10363257;28;20489;-76
2023/05/09 20:44:03;;;;;;;0.10;0.10;;;;;;;-145.06;38.17;92532.72;10361017;28;20261;-76
2023/05/09 20:49:03;;;;;;;0.10;0.10;;;;;;;-145.06;38.26;92510.22;10359388;28;20026;-76
2023/05/09 20:54:04;;;;;;;0.10;0.10;;;;;;;-145.06;38.34;92508.19;10363623;28;20022;-75
2023/05/09 20:59:04;;;;;;;0.10;0.10;;;;;;;-145.06;38.42;92500.00;10360434;28;20172;-75
2023/05/09 21:04:07;;;;;;;0.00;0.00;;;;;;;-145.06;38.53;92557.25;10360205;28;20075;-75
2023/05/09 21:09:08;;;;;;;0.00;0.00;;;;;;;-145.06;37.85;92510.22;10363313;28;20444;-76
2023/05/09 21:14:08;;;;;;;0.10;0.10;;;;;;;-145.06;37.76;92510.22;10361056;28;20023;-76
2023/05/09 21:19:08;;;;;;;0.10;0.10;;;;;;;-145.06;37.53;92493.88;10362524;28;20018;-75
2023/05/09 21:24:09;;;;;;;0.10;0.10;;;;;;;-145.06;37.38;92461.16;10362720;28;20022;-76
2023/05/09 21:29:09;;;;;;;0.00;0.00;;;;;;;-145.06;37.76;92493.88;10359471;28;20530;-75
2023/05/09 21:34:09;;;;;;;0.00;0.00;;;;;;;-145.06;37.29;92485.69;10363578;28;20038;-76
2023/05/09 21:39:10;;;;;;;0.10;0.10;;;;;;;-145.06;37.53;92463.19;10367094;28;20030;-76
2023/05/09 21:44:11;;;;;;;0.10;0.10;;;;;;;-145.06;37.97;92487.72;10357578;28;20033;-75
2023/05/09 21:49:11;;;;;;;0.10;0.10;;;;;;;-145.06;37.65;92506.13;10352968;28;20117;-75
2023/05/09 21:54:12;;;;;;;0.10;0.10;;;;;;;-145.06;38.00;92530.66;10349921;28;20121;-75
2023/05/09 21:59:12;;;;;;;0.10;0.10;;;;;;;-145.06;37.89;92483.63;10344209;28;20432;-76
2023/05/09 22:04:13;;;;;;;0.08;0.08;;;;;;;-145.06;37.89;92506.13;10364263;28;20108;-76
2023/05/09 22:09:14;;;;;;;0.10;0.10;;;;;;;-145.06;38.05;92547.03;10366168;28;20038;-76
2023/05/09 22:14:14;;;;;;;0.10;0.10;;;;;;;-145.06;38.20;92526.59;10362855;28;20022;-75
2023/05/09 22:19:14;;;;;;;0.00;0.00;;;;;;;-145.06;38.29;92559.31;10358192;28;20014;-76
2023/05/09 22:24:15;;;;;;;0.10;0.10;;;;;;;-145.06;39.11;92567.47;10354920;28;20069;-76
2023/05/09 22:29:16;;;;;;;0.10;0.10;;;;;;;-145.06;39.03;92608.38;10355264;28;20030;-75
2023/05/09 22:34:16;;;;;;;0.10;0.10;;;;;;;-145.06;39.16;92567.47;10357451;28;20138;-76
2023/05/09 22:39:17;;;;;;;0.10;0.10;;;;;;;-145.06;39.03;92522.50;10357769;28;20436;-76
2023/05/09 22:44:17;;;;;;;0.00;0.00;;;;;;;-145.06;39.10;92639.06;10357612;28;20486;-76
2023/05/09 22:49:18;;;;;;;0.10;0.10;;;;;;;-145.06;39.86;92594.06;10356506;28;20093;-75